sensor_id;sensor_type;location;lat;lon;timestamp;P1;durP1;ratioP1;P2;durP2;ratioP2
44384;SDS011;30101;32.778;34.994;2022-07-29T00:00:57;7.25;;;3.78;;
44384;SDS011;30101;32.778;34.994;2022-07-29T00:06:00;9.45;;;4.45;;
44384;SDS011;30101;32.778;34.994;2022-07-29T00:11:05;8.05;;;4.10;;
44384;SDS011;30101;32.778;34.994;2022-07-29T00:16:08;10.55;;;4.72;;
44384;SDS011;30101;32.778;34.994;2022-07-29T00:21:12;8.60;;;4.75;;
44384;SDS011;30101;32.778;34.994;2022-07-29T00:26:16;6.50;;;4.75;;
44384;SDS011;30101;32.778;34.994;2022-07-29T00:31:19;6.13;;;4.18;;
44384;SDS011;30101;32.778;34.994;2022-07-29T00:36:24;7.80;;;4.93;;
44384;SDS011;30101;32.778;34.994;2022-07-29T00:41:28;8.55;;;4.47;;
44384;SDS011;30101;32.778;34.994;2022-07-29T00:46:35;9.63;;;4.32;;
44384;SDS011;30101;32.778;34.994;2022-07-29T00:51:40;9.57;;;4.82;;
44384;SDS011;30101;32.778;34.994;2022-07-29T00:56:48;5.07;;;4.15;;
44384;SDS011;30101;32.778;34.994;2022-07-29T01:01:53;10.32;;;5.53;;
44384;SDS011;30101;32.778;34.994;2022-07-29T01:07:03;8.27;;;5.28;;
44384;SDS011;30101;32.778;34.994;2022-07-29T01:12:07;8.15;;;4.43;;
44384;SDS011;30101;32.778;34.994;2022-07-29T01:17:17;8.82;;;4.88;;
44384;SDS011;30101;32.778;34.994;2022-07-29T01:23:07;9.88;;;4.85;;
44384;SDS011;30101;32.778;34.994;2022-07-29T01:28:33;7.75;;;4.95;;
44384;SDS011;30101;32.778;34.994;2022-07-29T01:34:01;8.70;;;4.55;;
44384;SDS011;30101;32.778;34.994;2022-07-29T01:39:10;7.10;;;4.67;;
44384;SDS011;30101;32.778;34.994;2022-07-29T01:44:17;9.60;;;5.10;;
44384;SDS011;30101;32.778;34.994;2022-07-29T01:49:29;5.32;;;4.40;;
44384;SDS011;30101;32.778;34.994;2022-07-29T01:54:57;7.60;;;4.65;;
44384;SDS011;30101;32.778;34.994;2022-07-29T02:00:05;10.57;;;5.13;;
44384;SDS011;30101;32.778;34.994;2022-07-29T02:05:17;7.35;;;5.20;;
44384;SDS011;30101;32.778;34.994;2022-07-29T02:10:25;9.00;;;4.45;;
44384;SDS011;30101;32.778;34.994;2022-07-29T02:15:32;9.40;;;4.47;;
44384;SDS011;30101;32.778;34.994;2022-07-29T02:20:37;12.15;;;5.55;;
44384;SDS011;30101;32.778;34.994;2022-07-29T02:25:42;9.57;;;5.03;;
44384;SDS011;30101;32.778;34.994;2022-07-29T02:30:46;6.88;;;4.93;;
44384;SDS011;30101;32.778;34.994;2022-07-29T02:35:54;8.55;;;4.45;;
44384;SDS011;30101;32.778;34.994;2022-07-29T02:41:01;15.43;;;6.57;;
44384;SDS011;30101;32.778;34.994;2022-07-29T02:46:28;10.43;;;6.05;;
44384;SDS011;30101;32.778;34.994;2022-07-29T02:51:46;9.33;;;5.63;;
44384;SDS011;30101;32.778;34.994;2022-07-29T02:56:54;11.57;;;5.85;;
44384;SDS011;30101;32.778;34.994;2022-07-29T03:02:02;10.18;;;5.68;;
44384;SDS011;30101;32.778;34.994;2022-07-29T03:07:08;8.40;;;5.53;;
44384;SDS011;30101;32.778;34.994;2022-07-29T03:12:14;8.05;;;5.57;;
44384;SDS011;30101;32.778;34.994;2022-07-29T03:17:19;10.60;;;5.90;;
44384;SDS011;30101;32.778;34.994;2022-07-29T03:22:24;7.95;;;5.75;;
44384;SDS011;30101;32.778;34.994;2022-07-29T03:27:28;11.05;;;5.85;;
44384;SDS011;30101;32.778;34.994;2022-07-29T03:32:32;8.18;;;6.13;;
44384;SDS011;30101;32.778;34.994;2022-07-29T03:37:35;8.45;;;6.45;;
44384;SDS011;30101;32.778;34.994;2022-07-29T03:42:39;8.27;;;5.63;;
44384;SDS011;30101;32.778;34.994;2022-07-29T03:47:47;16.92;;;6.68;;
44384;SDS011;30101;32.778;34.994;2022-07-29T03:52:58;13.50;;;6.63;;
44384;SDS011;30101;32.778;34.994;2022-07-29T03:58:03;11.60;;;6.78;;
44384;SDS011;30101;32.778;34.994;2022-07-29T04:03:14;10.75;;;6.88;;
44384;SDS011;30101;32.778;34.994;2022-07-29T04:08:17;11.60;;;6.25;;
44384;SDS011;30101;32.778;34.994;2022-07-29T04:13:21;10.18;;;6.18;;
44384;SDS011;30101;32.778;34.994;2022-07-29T04:18:24;13.95;;;6.80;;
44384;SDS011;30101;32.778;34.994;2022-07-29T04:23:29;11.23;;;6.47;;
44384;SDS011;30101;32.778;34.994;2022-07-29T04:28:32;13.50;;;7.15;;
44384;SDS011;30101;32.778;34.994;2022-07-29T04:33:36;12.25;;;6.28;;
44384;SDS011;30101;32.778;34.994;2022-07-29T04:38:40;10.35;;;6.45;;
44384;SDS011;30101;32.778;34.994;2022-07-29T04:43:44;24.55;;;6.85;;
44384;SDS011;30101;32.778;34.994;2022-07-29T04:48:47;19.98;;;6.28;;
44384;SDS011;30101;32.778;34.994;2022-07-29T04:53:51;11.15;;;6.72;;
44384;SDS011;30101;32.778;34.994;2022-07-29T04:58:54;8.85;;;5.05;;
44384;SDS011;30101;32.778;34.994;2022-07-29T05:03:58;9.23;;;5.82;;
44384;SDS011;30101;32.778;34.994;2022-07-29T05:09:03;11.35;;;5.50;;
44384;SDS011;30101;32.778;34.994;2022-07-29T05:14:06;8.70;;;4.97;;
44384;SDS011;30101;32.778;34.994;2022-07-29T05:19:10;7.55;;;4.68;;
44384;SDS011;30101;32.778;34.994;2022-07-29T05:24:16;13.55;;;5.15;;
44384;SDS011;30101;32.778;34.994;2022-07-29T05:29:20;7.72;;;4.22;;
44384;SDS011;30101;32.778;34.994;2022-07-29T05:34:43;6.75;;;4.53;;
44384;SDS011;30101;32.778;34.994;2022-07-29T05:39:53;6.95;;;4.30;;
44384;SDS011;30101;32.778;34.994;2022-07-29T05:44:59;15.25;;;4.60;;
44384;SDS011;30101;32.778;34.994;2022-07-29T05:50:05;6.72;;;3.80;;
44384;SDS011;30101;32.778;34.994;2022-07-29T05:55:16;7.22;;;4.07;;
44384;SDS011;30101;32.778;34.994;2022-07-29T06:00:20;7.18;;;4.18;;
44384;SDS011;30101;32.778;34.994;2022-07-29T06:05:23;14.23;;;5.75;;
44384;SDS011;30101;32.778;34.994;2022-07-29T06:10:27;8.88;;;4.45;;
44384;SDS011;30101;32.778;34.994;2022-07-29T06:15:31;10.20;;;5.25;;
44384;SDS011;30101;32.778;34.994;2022-07-29T06:20:35;11.35;;;4.35;;
44384;SDS011;30101;32.778;34.994;2022-07-29T06:25:39;9.35;;;4.38;;
44384;SDS011;30101;32.778;34.994;2022-07-29T06:30:43;14.98;;;5.70;;
44384;SDS011;30101;32.778;34.994;2022-07-29T06:35:46;13.82;;;5.15;;
44384;SDS011;30101;32.778;34.994;2022-07-29T06:40:55;12.43;;;4.90;;
44384;SDS011;30101;32.778;34.994;2022-07-29T06:46:02;8.30;;;3.78;;
44384;SDS011;30101;32.778;34.994;2022-07-29T06:51:08;11.00;;;4.43;;
44384;SDS011;30101;32.778;34.994;2022-07-29T06:56:13;12.95;;;3.97;;
44384;SDS011;30101;32.778;34.994;2022-07-29T07:01:17;7.32;;;3.80;;
44384;SDS011;30101;32.778;34.994;2022-07-29T07:06:20;5.70;;;3.53;;
44384;SDS011;30101;32.778;34.994;2022-07-29T07:11:24;7.88;;;3.78;;
44384;SDS011;30101;32.778;34.994;2022-07-29T07:16:27;19.08;;;6.45;;
44384;SDS011;30101;32.778;34.994;2022-07-29T07:21:32;7.10;;;4.47;;
44384;SDS011;30101;32.778;34.994;2022-07-29T07:26:35;12.85;;;4.47;;
44384;SDS011;30101;32.778;34.994;2022-07-29T07:31:39;6.18;;;3.92;;
44384;SDS011;30101;32.778;34.994;2022-07-29T07:36:43;11.02;;;5.72;;
44384;SDS011;30101;32.778;34.994;2022-07-29T07:41:49;7.78;;;4.38;;
44384;SDS011;30101;32.778;34.994;2022-07-29T07:46:54;8.02;;;5.75;;
44384;SDS011;30101;32.778;34.994;2022-07-29T07:51:57;9.95;;;5.30;;
44384;SDS011;30101;32.778;34.994;2022-07-29T07:57:01;9.10;;;5.28;;
44384;SDS011;30101;32.778;34.994;2022-07-29T08:02:04;8.52;;;4.60;;
44384;SDS011;30101;32.778;34.994;2022-07-29T08:07:08;8.38;;;4.28;;
44384;SDS011;30101;32.778;34.994;2022-07-29T08:12:15;8.82;;;4.53;;
44384;SDS011;30101;32.778;34.994;2022-07-29T08:17:19;7.32;;;4.13;;
44384;SDS011;30101;32.778;34.994;2022-07-29T08:22:23;6.60;;;4.47;;
44384;SDS011;30101;32.778;34.994;2022-07-29T08:27:26;9.43;;;4.95;;
44384;SDS011;30101;32.778;34.994;2022-07-29T08:32:47;6.63;;;4.53;;
44384;SDS011;30101;32.778;34.994;2022-07-29T08:37:56;5.65;;;5.07;;
44384;SDS011;30101;32.778;34.994;2022-07-29T08:43:07;14.85;;;4.97;;
44384;SDS011;30101;32.778;34.994;2022-07-29T08:48:15;7.47;;;5.13;;
44384;SDS011;30101;32.778;34.994;2022-07-29T08:53:20;9.85;;;5.93;;
44384;SDS011;30101;32.778;34.994;2022-07-29T08:58:24;8.88;;;5.90;;
44384;SDS011;30101;32.778;34.994;2022-07-29T09:03:30;9.20;;;7.07;;
44384;SDS011;30101;32.778;34.994;2022-07-29T09:08:35;14.77;;;6.88;;
44384;SDS011;30101;32.778;34.994;2022-07-29T09:13:38;8.57;;;6.60;;
44384;SDS011;30101;32.778;34.994;2022-07-29T09:18:43;15.35;;;8.55;;
44384;SDS011;30101;32.778;34.994;2022-07-29T09:29:20;11.25;;;7.60;;
44384;SDS011;30101;32.778;34.994;2022-07-29T09:34:26;9.38;;;7.75;;
44384;SDS011;30101;32.778;34.994;2022-07-29T09:39:33;22.98;;;9.57;;
44384;SDS011;30101;32.778;34.994;2022-07-29T09:44:45;10.93;;;9.68;;
44384;SDS011;30101;32.778;34.994;2022-07-29T09:49:56;14.98;;;8.88;;
44384;SDS011;30101;32.778;34.994;2022-07-29T09:55:05;11.40;;;8.90;;
44384;SDS011;30101;32.778;34.994;2022-07-29T10:00:10;11.48;;;8.55;;
44384;SDS011;30101;32.778;34.994;2022-07-29T10:05:20;10.45;;;9.45;;
44384;SDS011;30101;32.778;34.994;2022-07-29T10:15:35;10.10;;;8.93;;
44384;SDS011;30101;32.778;34.994;2022-07-29T10:20:40;11.07;;;8.82;;
44384;SDS011;30101;32.778;34.994;2022-07-29T10:25:45;8.80;;;7.28;;
44384;SDS011;30101;32.778;34.994;2022-07-29T10:30:49;10.23;;;8.00;;
44384;SDS011;30101;32.778;34.994;2022-07-29T10:35:58;10.50;;;8.05;;
44384;SDS011;30101;32.778;34.994;2022-07-29T10:46:49;9.63;;;7.53;;
44384;SDS011;30101;32.778;34.994;2022-07-29T10:52:06;9.02;;;7.05;;
44384;SDS011;30101;32.778;34.994;2022-07-29T11:02:52;8.63;;;7.68;;
44384;SDS011;30101;32.778;34.994;2022-07-29T11:24:16;11.68;;;8.23;;
44384;SDS011;30101;32.778;34.994;2022-07-29T11:29:49;11.05;;;6.85;;
44384;SDS011;30101;32.778;34.994;2022-07-29T11:35:11;8.82;;;7.47;;
44384;SDS011;30101;32.778;34.994;2022-07-29T11:40:20;8.93;;;8.02;;
44384;SDS011;30101;32.778;34.994;2022-07-29T11:45:24;8.00;;;7.20;;
44384;SDS011;30101;32.778;34.994;2022-07-29T11:50:49;9.60;;;7.10;;
44384;SDS011;30101;32.778;34.994;2022-07-29T11:55:54;10.77;;;8.73;;
44384;SDS011;30101;32.778;34.994;2022-07-29T12:01:00;12.02;;;7.45;;
44384;SDS011;30101;32.778;34.994;2022-07-29T12:06:23;9.18;;;7.53;;
44384;SDS011;30101;32.778;34.994;2022-07-29T12:11:27;12.43;;;7.65;;
44384;SDS011;30101;32.778;34.994;2022-07-29T12:16:37;10.15;;;7.50;;
44384;SDS011;30101;32.778;34.994;2022-07-29T12:21:52;11.65;;;7.03;;
44384;SDS011;30101;32.778;34.994;2022-07-29T12:27:04;7.63;;;6.88;;
44384;SDS011;30101;32.778;34.994;2022-07-29T12:32:08;9.20;;;7.05;;
44384;SDS011;30101;32.778;34.994;2022-07-29T12:37:21;9.65;;;7.75;;
44384;SDS011;30101;32.778;34.994;2022-07-29T12:48:10;13.00;;;7.30;;
44384;SDS011;30101;32.778;34.994;2022-07-29T12:53:14;11.63;;;6.85;;
44384;SDS011;30101;32.778;34.994;2022-07-29T12:58:29;10.82;;;6.45;;
44384;SDS011;30101;32.778;34.994;2022-07-29T13:04:13;10.30;;;6.68;;
44384;SDS011;30101;32.778;34.994;2022-07-29T13:09:18;9.90;;;6.75;;
44384;SDS011;30101;32.778;34.994;2022-07-29T13:14:43;19.20;;;6.03;;
44384;SDS011;30101;32.778;34.994;2022-07-29T13:19:49;7.47;;;4.97;;
44384;SDS011;30101;32.778;34.994;2022-07-29T13:24:55;8.45;;;4.22;;
44384;SDS011;30101;32.778;34.994;2022-07-29T13:30:00;6.00;;;4.35;;
44384;SDS011;30101;32.778;34.994;2022-07-29T13:35:06;7.43;;;4.55;;
44384;SDS011;30101;32.778;34.994;2022-07-29T13:40:11;12.68;;;5.10;;
44384;SDS011;30101;32.778;34.994;2022-07-29T13:45:15;7.20;;;4.53;;
44384;SDS011;30101;32.778;34.994;2022-07-29T13:50:19;9.48;;;4.95;;
44384;SDS011;30101;32.778;34.994;2022-07-29T13:55:22;7.40;;;5.35;;
44384;SDS011;30101;32.778;34.994;2022-07-29T14:00:26;8.18;;;5.10;;
44384;SDS011;30101;32.778;34.994;2022-07-29T14:05:29;8.57;;;6.07;;
44384;SDS011;30101;32.778;34.994;2022-07-29T14:10:33;8.07;;;5.57;;
44384;SDS011;30101;32.778;34.994;2022-07-29T14:15:40;6.63;;;5.97;;
44384;SDS011;30101;32.778;34.994;2022-07-29T14:20:44;9.65;;;6.55;;
44384;SDS011;30101;32.778;34.994;2022-07-29T14:25:48;9.18;;;8.20;;
44384;SDS011;30101;32.778;34.994;2022-07-29T14:30:51;13.63;;;9.23;;
44384;SDS011;30101;32.778;34.994;2022-07-29T14:35:55;11.63;;;7.65;;
44384;SDS011;30101;32.778;34.994;2022-07-29T14:41:03;10.82;;;8.35;;
44384;SDS011;30101;32.778;34.994;2022-07-29T14:46:07;13.40;;;8.38;;
44384;SDS011;30101;32.778;34.994;2022-07-29T14:51:11;12.40;;;7.60;;
44384;SDS011;30101;32.778;34.994;2022-07-29T14:56:14;12.60;;;8.07;;
44384;SDS011;30101;32.778;34.994;2022-07-29T15:58:53;12.18;;;10.90;;
44384;SDS011;30101;32.778;34.994;2022-07-29T16:03:57;14.93;;;13.45;;
44384;SDS011;30101;32.778;34.994;2022-07-29T16:09:01;17.58;;;14.68;;
44384;SDS011;30101;32.778;34.994;2022-07-29T16:14:06;19.40;;;14.93;;
44384;SDS011;30101;32.778;34.994;2022-07-29T16:19:11;23.23;;;17.50;;
44384;SDS011;30101;32.778;34.994;2022-07-29T16:24:14;19.63;;;17.60;;
44384;SDS011;30101;32.778;34.994;2022-07-29T16:29:18;20.98;;;18.88;;
44384;SDS011;30101;32.778;34.994;2022-07-29T16:34:22;22.40;;;19.73;;
44384;SDS011;30101;32.778;34.994;2022-07-29T16:39:25;24.27;;;20.58;;
44384;SDS011;30101;32.778;34.994;2022-07-29T16:44:30;24.67;;;22.20;;
44384;SDS011;30101;32.778;34.994;2022-07-29T16:49:34;22.15;;;20.08;;
44384;SDS011;30101;32.778;34.994;2022-07-29T16:54:38;24.90;;;20.17;;
44384;SDS011;30101;32.778;34.994;2022-07-29T16:59:41;22.83;;;20.50;;
44384;SDS011;30101;32.778;34.994;2022-07-29T17:04:46;26.27;;;20.55;;
44384;SDS011;30101;32.778;34.994;2022-07-29T17:09:50;23.00;;;20.42;;
44384;SDS011;30101;32.778;34.994;2022-07-29T17:14:58;26.33;;;18.48;;
44384;SDS011;30101;32.778;34.994;2022-07-29T17:20:05;23.48;;;18.60;;
44384;SDS011;30101;32.778;34.994;2022-07-29T17:25:10;22.13;;;18.70;;
44384;SDS011;30101;32.778;34.994;2022-07-29T17:30:22;20.40;;;17.98;;
44384;SDS011;30101;32.778;34.994;2022-07-29T17:35:27;20.15;;;18.13;;
44384;SDS011;30101;32.778;34.994;2022-07-29T17:40:30;21.50;;;19.23;;
44384;SDS011;30101;32.778;34.994;2022-07-29T17:45:33;20.30;;;16.90;;
44384;SDS011;30101;32.778;34.994;2022-07-29T17:50:52;18.98;;;16.95;;
44384;SDS011;30101;32.778;34.994;2022-07-29T17:55:55;20.90;;;17.38;;
44384;SDS011;30101;32.778;34.994;2022-07-29T18:00:59;17.88;;;16.08;;
44384;SDS011;30101;32.778;34.994;2022-07-29T18:06:03;18.40;;;16.45;;
44384;SDS011;30101;32.778;34.994;2022-07-29T18:11:07;21.02;;;16.50;;
44384;SDS011;30101;32.778;34.994;2022-07-29T18:16:17;19.15;;;15.23;;
44384;SDS011;30101;32.778;34.994;2022-07-29T18:21:21;21.92;;;15.38;;
44384;SDS011;30101;32.778;34.994;2022-07-29T18:26:45;16.48;;;14.50;;
44384;SDS011;30101;32.778;34.994;2022-07-29T18:31:48;19.95;;;14.65;;
44384;SDS011;30101;32.778;34.994;2022-07-29T18:36:53;16.77;;;14.88;;
44384;SDS011;30101;32.778;34.994;2022-07-29T18:41:56;16.20;;;14.18;;
44384;SDS011;30101;32.778;34.994;2022-07-29T18:47:00;14.30;;;12.38;;
44384;SDS011;30101;32.778;34.994;2022-07-29T18:52:05;13.75;;;12.02;;
44384;SDS011;30101;32.778;34.994;2022-07-29T18:57:08;13.27;;;11.50;;
44384;SDS011;30101;32.778;34.994;2022-07-29T19:02:32;18.02;;;11.60;;
44384;SDS011;30101;32.778;34.994;2022-07-29T19:07:36;12.48;;;9.82;;
44384;SDS011;30101;32.778;34.994;2022-07-29T19:12:40;10.43;;;9.00;;
44384;SDS011;30101;32.778;34.994;2022-07-29T19:17:43;16.95;;;8.98;;
44384;SDS011;30101;32.778;34.994;2022-07-29T19:22:48;11.98;;;8.90;;
44384;SDS011;30101;32.778;34.994;2022-07-29T19:27:52;14.25;;;9.00;;
44384;SDS011;30101;32.778;34.994;2022-07-29T19:32:55;11.57;;;9.23;;
44384;SDS011;30101;32.778;34.994;2022-07-29T19:38:00;10.63;;;9.52;;
44384;SDS011;30101;32.778;34.994;2022-07-29T19:43:04;14.73;;;11.57;;
44384;SDS011;30101;32.778;34.994;2022-07-29T19:48:28;13.27;;;11.88;;
44384;SDS011;30101;32.778;34.994;2022-07-29T19:53:32;12.45;;;11.18;;
44384;SDS011;30101;32.778;34.994;2022-07-29T19:58:35;13.55;;;11.82;;
44384;SDS011;30101;32.778;34.994;2022-07-29T20:03:39;14.40;;;12.77;;
44384;SDS011;30101;32.778;34.994;2022-07-29T20:08:42;16.65;;;13.43;;
44384;SDS011;30101;32.778;34.994;2022-07-29T20:13:46;23.13;;;13.90;;
44384;SDS011;30101;32.778;34.994;2022-07-29T20:18:49;17.73;;;14.10;;
44384;SDS011;30101;32.778;34.994;2022-07-29T20:23:53;19.50;;;15.10;;
44384;SDS011;30101;32.778;34.994;2022-07-29T20:28:57;17.52;;;15.50;;
44384;SDS011;30101;32.778;34.994;2022-07-29T20:34:01;20.48;;;17.13;;
44384;SDS011;30101;32.778;34.994;2022-07-29T20:39:05;20.35;;;15.55;;
44384;SDS011;30101;32.778;34.994;2022-07-29T20:44:10;19.33;;;17.38;;
44384;SDS011;30101;32.778;34.994;2022-07-29T20:49:15;20.67;;;16.83;;
44384;SDS011;30101;32.778;34.994;2022-07-29T20:54:18;19.88;;;17.60;;
44384;SDS011;30101;32.778;34.994;2022-07-29T20:59:22;19.42;;;16.90;;
44384;SDS011;30101;32.778;34.994;2022-07-29T21:04:26;19.85;;;17.75;;
44384;SDS011;30101;32.778;34.994;2022-07-29T21:09:33;22.02;;;18.98;;
44384;SDS011;30101;32.778;34.994;2022-07-29T21:14:36;20.35;;;18.25;;
44384;SDS011;30101;32.778;34.994;2022-07-29T21:19:40;24.42;;;19.83;;
44384;SDS011;30101;32.778;34.994;2022-07-29T21:24:44;22.40;;;19.02;;
44384;SDS011;30101;32.778;34.994;2022-07-29T21:29:49;23.30;;;19.23;;
44384;SDS011;30101;32.778;34.994;2022-07-29T21:34:53;24.02;;;19.67;;
44384;SDS011;30101;32.778;34.994;2022-07-29T21:39:56;22.27;;;19.95;;
44384;SDS011;30101;32.778;34.994;2022-07-29T21:45:00;23.63;;;20.88;;
44384;SDS011;30101;32.778;34.994;2022-07-29T21:50:05;22.52;;;20.15;;
44384;SDS011;30101;32.778;34.994;2022-07-29T21:55:09;22.75;;;19.73;;
44384;SDS011;30101;32.778;34.994;2022-07-29T22:00:13;21.95;;;18.98;;
44384;SDS011;30101;32.778;34.994;2022-07-29T22:05:18;22.05;;;19.83;;
44384;SDS011;30101;32.778;34.994;2022-07-29T22:10:21;22.02;;;17.90;;
44384;SDS011;30101;32.778;34.994;2022-07-29T22:15:25;21.67;;;19.40;;
44384;SDS011;30101;32.778;34.994;2022-07-29T22:20:29;19.58;;;17.48;;
44384;SDS011;30101;32.778;34.994;2022-07-29T22:25:33;19.40;;;17.33;;
44384;SDS011;30101;32.778;34.994;2022-07-29T22:30:36;19.85;;;17.75;;
44384;SDS011;30101;32.778;34.994;2022-07-29T22:35:40;20.98;;;17.17;;
44384;SDS011;30101;32.778;34.994;2022-07-29T22:40:44;18.52;;;16.60;;
44384;SDS011;30101;32.778;34.994;2022-07-29T22:45:50;21.67;;;16.48;;
44384;SDS011;30101;32.778;34.994;2022-07-29T22:50:53;20.38;;;15.35;;
44384;SDS011;30101;32.778;34.994;2022-07-29T22:55:57;17.88;;;15.38;;
44384;SDS011;30101;32.778;34.994;2022-07-29T23:01:01;16.13;;;14.52;;
44384;SDS011;30101;32.778;34.994;2022-07-29T23:06:05;17.45;;;13.85;;
44384;SDS011;30101;32.778;34.994;2022-07-29T23:11:09;18.58;;;13.82;;
44384;SDS011;30101;32.778;34.994;2022-07-29T23:16:13;16.52;;;12.63;;
44384;SDS011;30101;32.778;34.994;2022-07-29T23:21:28;16.58;;;12.45;;
44384;SDS011;30101;32.778;34.994;2022-07-29T23:26:31;15.35;;;12.45;;
44384;SDS011;30101;32.778;34.994;2022-07-29T23:31:35;13.40;;;12.10;;
44384;SDS011;30101;32.778;34.994;2022-07-29T23:41:50;14.48;;;11.38;;
44384;SDS011;30101;32.778;34.994;2022-07-29T23:46:54;14.73;;;12.57;;
44384;SDS011;30101;32.778;34.994;2022-07-29T23:51:57;14.18;;;12.48;;
44384;SDS011;30101;32.778;34.994;2022-07-29T23:57:01;15.65;;;13.32;;
